sensor_id;sensor_type;location;lat;lon;timestamp;P1;durP1;ratioP1;P2;durP2;ratioP2
2748;SDS011;1382;52.142;11.618;2023-06-14T00:00:35;3.70;;;1.77;;
2748;SDS011;1382;52.142;11.618;2023-06-14T00:03:02;3.00;;;1.47;;
2748;SDS011;1382;52.142;11.618;2023-06-14T00:05:29;3.23;;;1.80;;
2748;SDS011;1382;52.142;11.618;2023-06-14T00:07:55;2.50;;;2.20;;
2748;SDS011;1382;52.142;11.618;2023-06-14T00:10:22;3.07;;;2.00;;
2748;SDS011;1382;52.142;11.618;2023-06-14T00:12:50;2.73;;;1.60;;
2748;SDS011;1382;52.142;11.618;2023-06-14T00:15:17;2.20;;;1.57;;
2748;SDS011;1382;52.142;11.618;2023-06-14T00:17:44;3.50;;;1.77;;
2748;SDS011;1382;52.142;11.618;2023-06-14T00:20:11;2.30;;;1.43;;
2748;SDS011;1382;52.142;11.618;2023-06-14T00:22:38;3.63;;;1.60;;
2748;SDS011;1382;52.142;11.618;2023-06-14T00:25:06;1.90;;;1.70;;
2748;SDS011;1382;52.142;11.618;2023-06-14T00:27:54;3.90;;;2.10;;
2748;SDS011;1382;52.142;11.618;2023-06-14T00:30:22;2.70;;;1.60;;
2748;SDS011;1382;52.142;11.618;2023-06-14T00:32:49;2.37;;;1.43;;
2748;SDS011;1382;52.142;11.618;2023-06-14T00:35:17;2.37;;;1.43;;
2748;SDS011;1382;52.142;11.618;2023-06-14T00:37:43;1.57;;;1.47;;
2748;SDS011;1382;52.142;11.618;2023-06-14T00:40:10;1.70;;;1.60;;
2748;SDS011;1382;52.142;11.618;2023-06-14T00:42:37;3.07;;;2.33;;
2748;SDS011;1382;52.142;11.618;2023-06-14T00:45:06;5.47;;;1.87;;
2748;SDS011;1382;52.142;11.618;2023-06-14T00:47:34;3.30;;;1.90;;
2748;SDS011;1382;52.142;11.618;2023-06-14T00:50:05;2.20;;;1.77;;
2748;SDS011;1382;52.142;11.618;2023-06-14T00:52:33;1.70;;;1.30;;
2748;SDS011;1382;52.142;11.618;2023-06-14T00:55:00;5.63;;;1.83;;
2748;SDS011;1382;52.142;11.618;2023-06-14T00:57:27;2.70;;;1.60;;
2748;SDS011;1382;52.142;11.618;2023-06-14T00:59:54;2.40;;;1.67;;
2748;SDS011;1382;52.142;11.618;2023-06-14T01:02:23;3.17;;;2.20;;
2748;SDS011;1382;52.142;11.618;2023-06-14T01:04:49;2.77;;;1.70;;
2748;SDS011;1382;52.142;11.618;2023-06-14T01:07:18;2.33;;;2.00;;
2748;SDS011;1382;52.142;11.618;2023-06-14T01:09:55;2.80;;;2.13;;
2748;SDS011;1382;52.142;11.618;2023-06-14T01:12:34;1.60;;;1.43;;
2748;SDS011;1382;52.142;11.618;2023-06-14T01:15:05;3.73;;;2.13;;
2748;SDS011;1382;52.142;11.618;2023-06-14T01:17:34;5.70;;;2.00;;
2748;SDS011;1382;52.142;11.618;2023-06-14T01:20:02;1.70;;;1.30;;
2748;SDS011;1382;52.142;11.618;2023-06-14T01:22:29;1.63;;;1.40;;
2748;SDS011;1382;52.142;11.618;2023-06-14T01:24:58;2.80;;;1.73;;
2748;SDS011;1382;52.142;11.618;2023-06-14T01:27:25;2.30;;;1.73;;
2748;SDS011;1382;52.142;11.618;2023-06-14T01:29:52;4.00;;;1.70;;
2748;SDS011;1382;52.142;11.618;2023-06-14T01:32:20;7.40;;;2.10;;
2748;SDS011;1382;52.142;11.618;2023-06-14T01:34:47;2.77;;;1.80;;
2748;SDS011;1382;52.142;11.618;2023-06-14T01:37:14;4.07;;;1.60;;
2748;SDS011;1382;52.142;11.618;2023-06-14T01:39:41;7.50;;;2.23;;
2748;SDS011;1382;52.142;11.618;2023-06-14T01:42:11;2.10;;;1.77;;
2748;SDS011;1382;52.142;11.618;2023-06-14T01:44:40;3.30;;;2.23;;
2748;SDS011;1382;52.142;11.618;2023-06-14T01:47:08;4.27;;;1.90;;
2748;SDS011;1382;52.142;11.618;2023-06-14T01:49:35;3.13;;;1.80;;
2748;SDS011;1382;52.142;11.618;2023-06-14T01:52:02;2.30;;;2.10;;
2748;SDS011;1382;52.142;11.618;2023-06-14T01:54:28;2.90;;;1.80;;
2748;SDS011;1382;52.142;11.618;2023-06-14T01:56:55;1.87;;;1.73;;
2748;SDS011;1382;52.142;11.618;2023-06-14T01:59:24;1.30;;;1.20;;
2748;SDS011;1382;52.142;11.618;2023-06-14T02:01:50;1.83;;;1.73;;
2748;SDS011;1382;52.142;11.618;2023-06-14T02:04:17;3.40;;;1.83;;
2748;SDS011;1382;52.142;11.618;2023-06-14T02:06:44;3.70;;;1.53;;
2748;SDS011;1382;52.142;11.618;2023-06-14T02:09:11;2.60;;;2.40;;
2748;SDS011;1382;52.142;11.618;2023-06-14T02:11:38;2.50;;;1.83;;
2748;SDS011;1382;52.142;11.618;2023-06-14T02:14:04;2.90;;;1.70;;
2748;SDS011;1382;52.142;11.618;2023-06-14T02:16:32;1.63;;;1.53;;
2748;SDS011;1382;52.142;11.618;2023-06-14T02:18:59;2.27;;;1.87;;
2748;SDS011;1382;52.142;11.618;2023-06-14T02:21:26;1.70;;;1.60;;
2748;SDS011;1382;52.142;11.618;2023-06-14T02:23:52;2.10;;;1.90;;
2748;SDS011;1382;52.142;11.618;2023-06-14T02:26:19;5.60;;;2.10;;
2748;SDS011;1382;52.142;11.618;2023-06-14T02:28:46;2.13;;;1.80;;
2748;SDS011;1382;52.142;11.618;2023-06-14T02:31:13;2.73;;;1.93;;
2748;SDS011;1382;52.142;11.618;2023-06-14T02:33:41;4.00;;;1.90;;
2748;SDS011;1382;52.142;11.618;2023-06-14T02:36:08;3.40;;;2.20;;
2748;SDS011;1382;52.142;11.618;2023-06-14T02:38:35;2.30;;;1.77;;
2748;SDS011;1382;52.142;11.618;2023-06-14T02:41:01;3.27;;;1.97;;
2748;SDS011;1382;52.142;11.618;2023-06-14T02:43:28;6.17;;;2.60;;
2748;SDS011;1382;52.142;11.618;2023-06-14T02:45:55;1.60;;;1.50;;
2748;SDS011;1382;52.142;11.618;2023-06-14T02:48:22;3.53;;;2.13;;
2748;SDS011;1382;52.142;11.618;2023-06-14T02:50:50;5.23;;;2.50;;
2748;SDS011;1382;52.142;11.618;2023-06-14T02:53:17;5.30;;;2.77;;
2748;SDS011;1382;52.142;11.618;2023-06-14T02:55:43;3.00;;;2.00;;
2748;SDS011;1382;52.142;11.618;2023-06-14T02:58:10;3.27;;;1.90;;
2748;SDS011;1382;52.142;11.618;2023-06-14T03:00:37;3.10;;;2.30;;
2748;SDS011;1382;52.142;11.618;2023-06-14T03:03:04;3.23;;;2.30;;
2748;SDS011;1382;52.142;11.618;2023-06-14T03:05:31;2.73;;;1.63;;
2748;SDS011;1382;52.142;11.618;2023-06-14T03:07:59;19.13;;;2.83;;
2748;SDS011;1382;52.142;11.618;2023-06-14T03:10:25;2.40;;;2.20;;
2748;SDS011;1382;52.142;11.618;2023-06-14T03:12:52;4.13;;;2.50;;
2748;SDS011;1382;52.142;11.618;2023-06-14T03:15:19;4.43;;;2.60;;
2748;SDS011;1382;52.142;11.618;2023-06-14T03:17:45;3.00;;;1.97;;
2748;SDS011;1382;52.142;11.618;2023-06-14T03:20:12;3.47;;;2.30;;
2748;SDS011;1382;52.142;11.618;2023-06-14T03:22:39;2.87;;;2.57;;
2748;SDS011;1382;52.142;11.618;2023-06-14T03:25:08;5.67;;;2.80;;
2748;SDS011;1382;52.142;11.618;2023-06-14T03:27:35;6.03;;;2.77;;
2748;SDS011;1382;52.142;11.618;2023-06-14T03:30:02;3.03;;;2.27;;
2748;SDS011;1382;52.142;11.618;2023-06-14T03:32:29;2.57;;;2.30;;
2748;SDS011;1382;52.142;11.618;2023-06-14T03:34:55;2.97;;;2.47;;
2748;SDS011;1382;52.142;11.618;2023-06-14T03:37:22;3.30;;;2.30;;
2748;SDS011;1382;52.142;11.618;2023-06-14T03:39:49;3.07;;;2.63;;
2748;SDS011;1382;52.142;11.618;2023-06-14T03:42:17;7.10;;;2.90;;
2748;SDS011;1382;52.142;11.618;2023-06-14T03:44:44;2.60;;;2.40;;
2748;SDS011;1382;52.142;11.618;2023-06-14T03:47:10;2.37;;;2.20;;
2748;SDS011;1382;52.142;11.618;2023-06-14T03:49:37;2.90;;;2.70;;
2748;SDS011;1382;52.142;11.618;2023-06-14T03:52:04;3.10;;;2.70;;
2748;SDS011;1382;52.142;11.618;2023-06-14T03:54:31;2.90;;;2.67;;
2748;SDS011;1382;52.142;11.618;2023-06-14T03:57:01;2.97;;;2.70;;
2748;SDS011;1382;52.142;11.618;2023-06-14T03:59:29;3.23;;;2.70;;
2748;SDS011;1382;52.142;11.618;2023-06-14T04:01:55;4.23;;;3.00;;
2748;SDS011;1382;52.142;11.618;2023-06-14T04:04:22;4.80;;;3.27;;
2748;SDS011;1382;52.142;11.618;2023-06-14T04:06:49;3.00;;;2.67;;
2748;SDS011;1382;52.142;11.618;2023-06-14T04:09:16;1.83;;;1.70;;
2748;SDS011;1382;52.142;11.618;2023-06-14T04:11:42;2.80;;;2.30;;
2748;SDS011;1382;52.142;11.618;2023-06-14T04:14:09;2.77;;;2.23;;
2748;SDS011;1382;52.142;11.618;2023-06-14T04:16:37;3.80;;;2.60;;
2748;SDS011;1382;52.142;11.618;2023-06-14T04:19:04;2.23;;;2.03;;
2748;SDS011;1382;52.142;11.618;2023-06-14T04:21:31;2.60;;;2.37;;
2748;SDS011;1382;52.142;11.618;2023-06-14T04:23:58;3.70;;;2.87;;
2748;SDS011;1382;52.142;11.618;2023-06-14T04:26:24;4.93;;;2.60;;
2748;SDS011;1382;52.142;11.618;2023-06-14T04:28:52;3.07;;;2.77;;
2748;SDS011;1382;52.142;11.618;2023-06-14T04:31:19;3.40;;;3.00;;
2748;SDS011;1382;52.142;11.618;2023-06-14T04:33:47;5.10;;;2.73;;
2748;SDS011;1382;52.142;11.618;2023-06-14T04:36:14;3.00;;;2.70;;
2748;SDS011;1382;52.142;11.618;2023-06-14T04:38:41;3.10;;;2.70;;
2748;SDS011;1382;52.142;11.618;2023-06-14T04:41:07;9.60;;;5.30;;
2748;SDS011;1382;52.142;11.618;2023-06-14T04:43:34;4.17;;;3.80;;
2748;SDS011;1382;52.142;11.618;2023-06-14T04:46:01;7.90;;;3.00;;
2748;SDS011;1382;52.142;11.618;2023-06-14T04:48:28;4.80;;;3.20;;
2748;SDS011;1382;52.142;11.618;2023-06-14T04:50:56;3.97;;;2.90;;
2748;SDS011;1382;52.142;11.618;2023-06-14T04:53:22;4.03;;;2.90;;
2748;SDS011;1382;52.142;11.618;2023-06-14T04:55:49;6.23;;;3.50;;
2748;SDS011;1382;52.142;11.618;2023-06-14T04:58:16;4.50;;;3.10;;
2748;SDS011;1382;52.142;11.618;2023-06-14T05:00:43;5.43;;;3.47;;
2748;SDS011;1382;52.142;11.618;2023-06-14T05:03:09;4.40;;;3.07;;
2748;SDS011;1382;52.142;11.618;2023-06-14T05:05:38;4.07;;;2.60;;
2748;SDS011;1382;52.142;11.618;2023-06-14T05:08:06;4.53;;;3.43;;
2748;SDS011;1382;52.142;11.618;2023-06-14T05:10:33;2.80;;;2.50;;
2748;SDS011;1382;52.142;11.618;2023-06-14T05:13:00;5.70;;;3.90;;
2748;SDS011;1382;52.142;11.618;2023-06-14T05:15:27;5.77;;;3.90;;
2748;SDS011;1382;52.142;11.618;2023-06-14T05:17:53;4.03;;;3.40;;
2748;SDS011;1382;52.142;11.618;2023-06-14T05:20:20;5.10;;;3.90;;
2748;SDS011;1382;52.142;11.618;2023-06-14T05:22:47;8.37;;;4.20;;
2748;SDS011;1382;52.142;11.618;2023-06-14T05:25:15;4.40;;;3.60;;
2748;SDS011;1382;52.142;11.618;2023-06-14T05:27:43;5.73;;;3.50;;
2748;SDS011;1382;52.142;11.618;2023-06-14T05:30:10;8.33;;;4.63;;
2748;SDS011;1382;52.142;11.618;2023-06-14T05:32:37;6.50;;;3.50;;
2748;SDS011;1382;52.142;11.618;2023-06-14T05:35:05;5.67;;;3.50;;
2748;SDS011;1382;52.142;11.618;2023-06-14T05:37:32;6.60;;;2.97;;
2748;SDS011;1382;52.142;11.618;2023-06-14T05:39:59;9.93;;;4.50;;
2748;SDS011;1382;52.142;11.618;2023-06-14T05:42:27;4.57;;;3.60;;
2748;SDS011;1382;52.142;11.618;2023-06-14T05:44:54;6.20;;;3.83;;
2748;SDS011;1382;52.142;11.618;2023-06-14T05:47:20;3.70;;;3.30;;
2748;SDS011;1382;52.142;11.618;2023-06-14T05:49:47;6.23;;;4.27;;
2748;SDS011;1382;52.142;11.618;2023-06-14T05:52:14;5.97;;;4.27;;
2748;SDS011;1382;52.142;11.618;2023-06-14T05:54:40;6.10;;;3.60;;
2748;SDS011;1382;52.142;11.618;2023-06-14T05:57:07;5.83;;;4.07;;
2748;SDS011;1382;52.142;11.618;2023-06-14T05:59:35;5.40;;;3.90;;
2748;SDS011;1382;52.142;11.618;2023-06-14T06:02:02;5.80;;;3.60;;
2748;SDS011;1382;52.142;11.618;2023-06-14T06:04:29;6.33;;;4.00;;
2748;SDS011;1382;52.142;11.618;2023-06-14T06:06:56;6.23;;;4.13;;
2748;SDS011;1382;52.142;11.618;2023-06-14T06:09:23;7.87;;;3.43;;
2748;SDS011;1382;52.142;11.618;2023-06-14T06:11:49;5.10;;;3.80;;
2748;SDS011;1382;52.142;11.618;2023-06-14T06:14:19;6.13;;;4.37;;
2748;SDS011;1382;52.142;11.618;2023-06-14T06:16:47;4.37;;;3.97;;
2748;SDS011;1382;52.142;11.618;2023-06-14T06:19:14;6.47;;;4.43;;
2748;SDS011;1382;52.142;11.618;2023-06-14T06:21:41;4.17;;;3.40;;
2748;SDS011;1382;52.142;11.618;2023-06-14T06:24:08;5.13;;;3.70;;
2748;SDS011;1382;52.142;11.618;2023-06-14T06:26:35;4.67;;;4.00;;
2748;SDS011;1382;52.142;11.618;2023-06-14T06:29:01;9.47;;;3.90;;
2748;SDS011;1382;52.142;11.618;2023-06-14T06:31:28;4.80;;;3.80;;
2748;SDS011;1382;52.142;11.618;2023-06-14T06:33:56;5.03;;;4.17;;
2748;SDS011;1382;52.142;11.618;2023-06-14T06:36:23;4.87;;;3.30;;
2748;SDS011;1382;52.142;11.618;2023-06-14T06:38:50;4.37;;;3.57;;
2748;SDS011;1382;52.142;11.618;2023-06-14T06:41:17;5.10;;;4.10;;
2748;SDS011;1382;52.142;11.618;2023-06-14T06:43:44;5.43;;;3.53;;
2748;SDS011;1382;52.142;11.618;2023-06-14T06:46:11;4.83;;;3.43;;
2748;SDS011;1382;52.142;11.618;2023-06-14T06:48:37;11.23;;;3.73;;
2748;SDS011;1382;52.142;11.618;2023-06-14T06:51:05;2.93;;;2.63;;
2748;SDS011;1382;52.142;11.618;2023-06-14T06:53:32;11.33;;;2.80;;
2748;SDS011;1382;52.142;11.618;2023-06-14T06:56:06;2.93;;;2.73;;
2748;SDS011;1382;52.142;11.618;2023-06-14T06:58:33;4.00;;;2.80;;
2748;SDS011;1382;52.142;11.618;2023-06-14T07:01:00;4.27;;;2.90;;
2748;SDS011;1382;52.142;11.618;2023-06-14T07:03:27;5.47;;;3.30;;
2748;SDS011;1382;52.142;11.618;2023-06-14T07:05:53;3.43;;;3.10;;
2748;SDS011;1382;52.142;11.618;2023-06-14T07:08:22;4.97;;;3.60;;
2748;SDS011;1382;52.142;11.618;2023-06-14T07:10:48;10.63;;;3.30;;
2748;SDS011;1382;52.142;11.618;2023-06-14T07:13:15;4.47;;;3.03;;
2748;SDS011;1382;52.142;11.618;2023-06-14T07:15:42;5.27;;;3.20;;
2748;SDS011;1382;52.142;11.618;2023-06-14T07:18:08;3.23;;;2.90;;
2748;SDS011;1382;52.142;11.618;2023-06-14T07:20:35;5.53;;;3.53;;
2748;SDS011;1382;52.142;11.618;2023-06-14T07:23:02;4.10;;;3.40;;
2748;SDS011;1382;52.142;11.618;2023-06-14T07:25:30;4.33;;;3.20;;
2748;SDS011;1382;52.142;11.618;2023-06-14T07:27:57;2.73;;;2.43;;
2748;SDS011;1382;52.142;11.618;2023-06-14T07:30:23;7.03;;;3.40;;
2748;SDS011;1382;52.142;11.618;2023-06-14T07:32:50;3.30;;;3.00;;
2748;SDS011;1382;52.142;11.618;2023-06-14T07:35:17;2.63;;;2.10;;
2748;SDS011;1382;52.142;11.618;2023-06-14T07:37:44;3.67;;;3.13;;
2748;SDS011;1382;52.142;11.618;2023-06-14T07:40:11;5.57;;;2.57;;
2748;SDS011;1382;52.142;11.618;2023-06-14T07:42:40;3.70;;;3.07;;
2748;SDS011;1382;52.142;11.618;2023-06-14T07:45:07;4.73;;;2.90;;
2748;SDS011;1382;52.142;11.618;2023-06-14T07:47:34;3.23;;;2.90;;
2748;SDS011;1382;52.142;11.618;2023-06-14T07:50:01;3.90;;;2.47;;
2748;SDS011;1382;52.142;11.618;2023-06-14T07:52:28;4.70;;;2.30;;
2748;SDS011;1382;52.142;11.618;2023-06-14T07:54:54;6.47;;;3.33;;
2748;SDS011;1382;52.142;11.618;2023-06-14T07:57:21;3.30;;;2.30;;
2748;SDS011;1382;52.142;11.618;2023-06-14T07:59:49;3.20;;;2.90;;
2748;SDS011;1382;52.142;11.618;2023-06-14T08:02:16;2.57;;;2.37;;
2748;SDS011;1382;52.142;11.618;2023-06-14T08:04:43;3.80;;;3.43;;
2748;SDS011;1382;52.142;11.618;2023-06-14T08:07:10;4.90;;;2.63;;
2748;SDS011;1382;52.142;11.618;2023-06-14T08:09:37;2.97;;;2.77;;
2748;SDS011;1382;52.142;11.618;2023-06-14T08:12:03;3.17;;;2.73;;
2748;SDS011;1382;52.142;11.618;2023-06-14T08:14:30;3.00;;;2.70;;
2748;SDS011;1382;52.142;11.618;2023-06-14T08:16:59;3.47;;;3.17;;
2748;SDS011;1382;52.142;11.618;2023-06-14T08:19:25;4.10;;;3.70;;
2748;SDS011;1382;52.142;11.618;2023-06-14T08:21:52;3.90;;;2.73;;
2748;SDS011;1382;52.142;11.618;2023-06-14T08:24:20;5.27;;;2.50;;
2748;SDS011;1382;52.142;11.618;2023-06-14T08:26:47;2.63;;;2.43;;
2748;SDS011;1382;52.142;11.618;2023-06-14T08:29:14;2.80;;;2.30;;
2748;SDS011;1382;52.142;11.618;2023-06-14T08:31:41;5.23;;;2.63;;
2748;SDS011;1382;52.142;11.618;2023-06-14T08:34:09;4.80;;;2.60;;
2748;SDS011;1382;52.142;11.618;2023-06-14T08:36:36;6.43;;;3.00;;
2748;SDS011;1382;52.142;11.618;2023-06-14T08:39:02;3.43;;;2.90;;
2748;SDS011;1382;52.142;11.618;2023-06-14T08:41:29;3.97;;;2.93;;
2748;SDS011;1382;52.142;11.618;2023-06-14T08:43:56;7.07;;;2.70;;
2748;SDS011;1382;52.142;11.618;2023-06-14T08:46:23;3.80;;;2.60;;
2748;SDS011;1382;52.142;11.618;2023-06-14T08:48:52;3.90;;;3.30;;
2748;SDS011;1382;52.142;11.618;2023-06-14T08:51:23;4.67;;;3.10;;
2748;SDS011;1382;52.142;11.618;2023-06-14T08:53:52;4.33;;;3.40;;
2748;SDS011;1382;52.142;11.618;2023-06-14T08:56:20;3.90;;;3.47;;
2748;SDS011;1382;52.142;11.618;2023-06-14T08:58:47;4.93;;;3.53;;
2748;SDS011;1382;52.142;11.618;2023-06-14T09:01:15;4.50;;;3.17;;
2748;SDS011;1382;52.142;11.618;2023-06-14T09:03:42;4.73;;;2.73;;
2748;SDS011;1382;52.142;11.618;2023-06-14T09:06:09;3.67;;;2.87;;
2748;SDS011;1382;52.142;11.618;2023-06-14T09:08:39;7.10;;;2.93;;
2748;SDS011;1382;52.142;11.618;2023-06-14T09:11:08;3.93;;;2.90;;
2748;SDS011;1382;52.142;11.618;2023-06-14T09:13:34;4.70;;;3.07;;
2748;SDS011;1382;52.142;11.618;2023-06-14T09:16:01;3.30;;;3.00;;
2748;SDS011;1382;52.142;11.618;2023-06-14T09:18:34;8.33;;;4.07;;
2748;SDS011;1382;52.142;11.618;2023-06-14T09:21:01;4.17;;;2.87;;
2748;SDS011;1382;52.142;11.618;2023-06-14T09:23:27;3.60;;;3.27;;
2748;SDS011;1382;52.142;11.618;2023-06-14T09:25:55;3.83;;;3.53;;
2748;SDS011;1382;52.142;11.618;2023-06-14T09:28:26;5.23;;;3.47;;
2748;SDS011;1382;52.142;11.618;2023-06-14T09:30:53;4.23;;;3.67;;
2748;SDS011;1382;52.142;11.618;2023-06-14T09:33:20;4.20;;;3.80;;
2748;SDS011;1382;52.142;11.618;2023-06-14T09:35:50;5.37;;;3.60;;
2748;SDS011;1382;52.142;11.618;2023-06-14T09:38:17;6.47;;;3.70;;
2748;SDS011;1382;52.142;11.618;2023-06-14T09:40:44;6.70;;;3.40;;
2748;SDS011;1382;52.142;11.618;2023-06-14T09:43:12;4.87;;;3.20;;
2748;SDS011;1382;52.142;11.618;2023-06-14T09:45:39;3.67;;;3.37;;
2748;SDS011;1382;52.142;11.618;2023-06-14T09:48:06;4.70;;;3.40;;
2748;SDS011;1382;52.142;11.618;2023-06-14T09:50:33;3.97;;;3.67;;
2748;SDS011;1382;52.142;11.618;2023-06-14T09:53:02;6.13;;;3.97;;
2748;SDS011;1382;52.142;11.618;2023-06-14T09:55:33;4.93;;;2.97;;
2748;SDS011;1382;52.142;11.618;2023-06-14T09:58:04;7.00;;;3.73;;
2748;SDS011;1382;52.142;11.618;2023-06-14T10:00:33;6.23;;;3.77;;
2748;SDS011;1382;52.142;11.618;2023-06-14T10:03:03;5.10;;;4.00;;
2748;SDS011;1382;52.142;11.618;2023-06-14T10:05:34;8.60;;;3.73;;
2748;SDS011;1382;52.142;11.618;2023-06-14T10:08:04;5.00;;;3.40;;
2748;SDS011;1382;52.142;11.618;2023-06-14T10:10:34;4.63;;;4.17;;
2748;SDS011;1382;52.142;11.618;2023-06-14T10:13:01;5.80;;;3.70;;
2748;SDS011;1382;52.142;11.618;2023-06-14T10:15:31;7.97;;;4.20;;
2748;SDS011;1382;52.142;11.618;2023-06-14T10:18:06;4.43;;;4.03;;
2748;SDS011;1382;52.142;11.618;2023-06-14T10:20:38;6.00;;;3.70;;
2748;SDS011;1382;52.142;11.618;2023-06-14T10:23:10;4.03;;;2.93;;
2748;SDS011;1382;52.142;11.618;2023-06-14T10:25:41;4.33;;;3.33;;
2748;SDS011;1382;52.142;11.618;2023-06-14T10:28:15;5.47;;;4.17;;
2748;SDS011;1382;52.142;11.618;2023-06-14T10:31:03;6.50;;;3.80;;
2748;SDS011;1382;52.142;11.618;2023-06-14T10:33:34;6.57;;;3.90;;
2748;SDS011;1382;52.142;11.618;2023-06-14T10:36:23;7.93;;;3.33;;
2748;SDS011;1382;52.142;11.618;2023-06-14T10:38:58;7.53;;;3.40;;
2748;SDS011;1382;52.142;11.618;2023-06-14T10:41:27;4.80;;;3.80;;
2748;SDS011;1382;52.142;11.618;2023-06-14T10:46:55;15.27;;;4.10;;
2748;SDS011;1382;52.142;11.618;2023-06-14T10:49:36;9.23;;;5.80;;
2748;SDS011;1382;52.142;11.618;2023-06-14T10:52:05;8.30;;;3.47;;
2748;SDS011;1382;52.142;11.618;2023-06-14T10:54:33;5.00;;;3.83;;
2748;SDS011;1382;52.142;11.618;2023-06-14T10:57:00;4.57;;;3.80;;
2748;SDS011;1382;52.142;11.618;2023-06-14T10:59:27;4.63;;;3.30;;
2748;SDS011;1382;52.142;11.618;2023-06-14T11:01:56;5.17;;;3.67;;
2748;SDS011;1382;52.142;11.618;2023-06-14T11:04:46;4.77;;;3.67;;
2748;SDS011;1382;52.142;11.618;2023-06-14T11:07:19;7.73;;;3.90;;
2748;SDS011;1382;52.142;11.618;2023-06-14T11:10:05;5.60;;;3.30;;
2748;SDS011;1382;52.142;11.618;2023-06-14T11:12:43;5.33;;;4.20;;
2748;SDS011;1382;52.142;11.618;2023-06-14T11:15:13;5.07;;;3.50;;
2748;SDS011;1382;52.142;11.618;2023-06-14T11:17:50;6.13;;;3.97;;
2748;SDS011;1382;52.142;11.618;2023-06-14T11:20:17;12.73;;;4.17;;
2748;SDS011;1382;52.142;11.618;2023-06-14T11:22:48;4.93;;;3.50;;
2748;SDS011;1382;52.142;11.618;2023-06-14T11:25:15;10.73;;;5.00;;
2748;SDS011;1382;52.142;11.618;2023-06-14T11:27:43;10.10;;;3.80;;
2748;SDS011;1382;52.142;11.618;2023-06-14T11:30:10;4.27;;;2.90;;
2748;SDS011;1382;52.142;11.618;2023-06-14T11:32:39;5.90;;;3.67;;
2748;SDS011;1382;52.142;11.618;2023-06-14T11:35:07;3.73;;;3.43;;
2748;SDS011;1382;52.142;11.618;2023-06-14T11:37:35;8.93;;;3.70;;
2748;SDS011;1382;52.142;11.618;2023-06-14T11:40:03;5.30;;;3.77;;
2748;SDS011;1382;52.142;11.618;2023-06-14T11:42:32;3.77;;;3.37;;
2748;SDS011;1382;52.142;11.618;2023-06-14T11:44:59;8.00;;;5.17;;
2748;SDS011;1382;52.142;11.618;2023-06-14T11:47:35;4.50;;;3.23;;
2748;SDS011;1382;52.142;11.618;2023-06-14T11:50:03;8.90;;;3.63;;
2748;SDS011;1382;52.142;11.618;2023-06-14T11:52:32;4.90;;;3.60;;
2748;SDS011;1382;52.142;11.618;2023-06-14T11:55:01;5.63;;;3.53;;
2748;SDS011;1382;52.142;11.618;2023-06-14T11:57:29;4.50;;;3.23;;
2748;SDS011;1382;52.142;11.618;2023-06-14T11:59:56;5.23;;;3.73;;
2748;SDS011;1382;52.142;11.618;2023-06-14T12:02:22;5.70;;;3.83;;
2748;SDS011;1382;52.142;11.618;2023-06-14T12:04:50;5.03;;;3.40;;
2748;SDS011;1382;52.142;11.618;2023-06-14T12:07:17;5.50;;;3.53;;
2748;SDS011;1382;52.142;11.618;2023-06-14T12:12:35;8.77;;;4.30;;
2748;SDS011;1382;52.142;11.618;2023-06-14T12:15:02;7.00;;;3.83;;
2748;SDS011;1382;52.142;11.618;2023-06-14T12:17:31;6.70;;;3.87;;
2748;SDS011;1382;52.142;11.618;2023-06-14T12:19:58;9.33;;;4.00;;
2748;SDS011;1382;52.142;11.618;2023-06-14T12:22:30;3.77;;;3.20;;
2748;SDS011;1382;52.142;11.618;2023-06-14T12:24:57;8.87;;;4.00;;
2748;SDS011;1382;52.142;11.618;2023-06-14T12:27:25;6.90;;;4.40;;
2748;SDS011;1382;52.142;11.618;2023-06-14T12:29:58;3.50;;;3.20;;
2748;SDS011;1382;52.142;11.618;2023-06-14T12:32:25;4.13;;;3.30;;
2748;SDS011;1382;52.142;11.618;2023-06-14T12:34:52;7.53;;;3.53;;
2748;SDS011;1382;52.142;11.618;2023-06-14T12:37:19;9.70;;;4.17;;
2748;SDS011;1382;52.142;11.618;2023-06-14T12:39:45;4.00;;;3.23;;
2748;SDS011;1382;52.142;11.618;2023-06-14T12:42:12;7.80;;;4.50;;
2748;SDS011;1382;52.142;11.618;2023-06-14T12:44:40;6.20;;;3.40;;
2748;SDS011;1382;52.142;11.618;2023-06-14T12:47:07;8.20;;;3.97;;
2748;SDS011;1382;52.142;11.618;2023-06-14T12:49:34;5.20;;;3.70;;
2748;SDS011;1382;52.142;11.618;2023-06-14T12:52:01;7.37;;;3.50;;
2748;SDS011;1382;52.142;11.618;2023-06-14T12:54:27;11.97;;;4.20;;
2748;SDS011;1382;52.142;11.618;2023-06-14T12:57:05;7.23;;;3.70;;
2748;SDS011;1382;52.142;11.618;2023-06-14T12:59:32;7.23;;;3.93;;
2748;SDS011;1382;52.142;11.618;2023-06-14T13:02:01;7.93;;;3.77;;
2748;SDS011;1382;52.142;11.618;2023-06-14T13:04:40;7.00;;;4.27;;
2748;SDS011;1382;52.142;11.618;2023-06-14T13:07:07;8.23;;;4.87;;
2748;SDS011;1382;52.142;11.618;2023-06-14T13:09:33;7.63;;;3.53;;
2748;SDS011;1382;52.142;11.618;2023-06-14T13:12:00;8.70;;;4.00;;
2748;SDS011;1382;52.142;11.618;2023-06-14T13:14:27;3.57;;;3.27;;
2748;SDS011;1382;52.142;11.618;2023-06-14T13:16:54;6.47;;;3.73;;
2748;SDS011;1382;52.142;11.618;2023-06-14T13:19:22;6.97;;;4.30;;
2748;SDS011;1382;52.142;11.618;2023-06-14T13:21:49;7.83;;;4.17;;
2748;SDS011;1382;52.142;11.618;2023-06-14T13:24:16;9.97;;;3.63;;
2748;SDS011;1382;52.142;11.618;2023-06-14T13:26:42;11.70;;;4.03;;
2748;SDS011;1382;52.142;11.618;2023-06-14T13:29:09;9.90;;;4.00;;
2748;SDS011;1382;52.142;11.618;2023-06-14T13:31:36;10.17;;;4.10;;
2748;SDS011;1382;52.142;11.618;2023-06-14T13:34:03;10.27;;;4.10;;
2748;SDS011;1382;52.142;11.618;2023-06-14T13:36:31;7.43;;;4.10;;
2748;SDS011;1382;52.142;11.618;2023-06-14T13:38:57;6.70;;;2.97;;
2748;SDS011;1382;52.142;11.618;2023-06-14T13:41:25;5.33;;;3.90;;
2748;SDS011;1382;52.142;11.618;2023-06-14T13:43:52;5.67;;;3.90;;
2748;SDS011;1382;52.142;11.618;2023-06-14T13:46:18;7.63;;;3.70;;
2748;SDS011;1382;52.142;11.618;2023-06-14T13:48:45;9.60;;;4.37;;
2748;SDS011;1382;52.142;11.618;2023-06-14T13:51:12;7.10;;;4.83;;
2748;SDS011;1382;52.142;11.618;2023-06-14T13:53:40;4.97;;;3.47;;
2748;SDS011;1382;52.142;11.618;2023-06-14T13:56:06;5.80;;;4.00;;
2748;SDS011;1382;52.142;11.618;2023-06-14T13:58:33;4.43;;;3.60;;
2748;SDS011;1382;52.142;11.618;2023-06-14T14:01:00;5.50;;;3.80;;
2748;SDS011;1382;52.142;11.618;2023-06-14T14:03:27;5.83;;;3.23;;
2748;SDS011;1382;52.142;11.618;2023-06-14T14:05:53;9.50;;;4.67;;
2748;SDS011;1382;52.142;11.618;2023-06-14T14:08:20;6.00;;;3.93;;
2748;SDS011;1382;52.142;11.618;2023-06-14T14:10:48;3.50;;;2.80;;
2748;SDS011;1382;52.142;11.618;2023-06-14T14:13:15;5.50;;;2.90;;
2748;SDS011;1382;52.142;11.618;2023-06-14T14:15:42;4.43;;;2.90;;
2748;SDS011;1382;52.142;11.618;2023-06-14T14:18:09;7.30;;;4.33;;
2748;SDS011;1382;52.142;11.618;2023-06-14T14:20:36;10.47;;;3.80;;
2748;SDS011;1382;52.142;11.618;2023-06-14T14:23:02;6.27;;;4.20;;
2748;SDS011;1382;52.142;11.618;2023-06-14T14:25:29;4.73;;;3.00;;
2748;SDS011;1382;52.142;11.618;2023-06-14T14:27:57;4.83;;;4.03;;
2748;SDS011;1382;52.142;11.618;2023-06-14T14:30:24;6.73;;;3.43;;
2748;SDS011;1382;52.142;11.618;2023-06-14T14:32:51;4.37;;;3.97;;
2748;SDS011;1382;52.142;11.618;2023-06-14T14:35:18;10.30;;;3.40;;
2748;SDS011;1382;52.142;11.618;2023-06-14T14:37:44;4.60;;;3.30;;
2748;SDS011;1382;52.142;11.618;2023-06-14T14:40:12;5.33;;;3.60;;
2748;SDS011;1382;52.142;11.618;2023-06-14T14:42:39;4.90;;;3.10;;
2748;SDS011;1382;52.142;11.618;2023-06-14T14:45:08;5.90;;;3.47;;
2748;SDS011;1382;52.142;11.618;2023-06-14T14:47:35;5.90;;;3.50;;
2748;SDS011;1382;52.142;11.618;2023-06-14T14:50:01;9.00;;;4.30;;
2748;SDS011;1382;52.142;11.618;2023-06-14T14:52:28;5.60;;;4.33;;
2748;SDS011;1382;52.142;11.618;2023-06-14T14:54:55;9.83;;;4.50;;
2748;SDS011;1382;52.142;11.618;2023-06-14T14:57:22;7.40;;;3.80;;
2748;SDS011;1382;52.142;11.618;2023-06-14T14:59:48;9.70;;;3.70;;
2748;SDS011;1382;52.142;11.618;2023-06-14T15:02:16;7.73;;;4.60;;
2748;SDS011;1382;52.142;11.618;2023-06-14T15:04:44;6.97;;;3.57;;
2748;SDS011;1382;52.142;11.618;2023-06-14T15:07:11;4.10;;;3.40;;
2748;SDS011;1382;52.142;11.618;2023-06-14T15:09:38;7.43;;;3.50;;